createdAt,value
2018-09-02T00:00:48.982Z,12.83
2018-09-02T00:02:54.922Z,11.73
2018-09-02T00:05:00.299Z,13.10
2018-09-02T00:07:05.887Z,11.73
2018-09-02T00:09:11.234Z,12.70
2018-09-02T00:11:16.895Z,12.60
2018-09-02T00:13:22.265Z,12.63
2018-09-02T00:15:28.165Z,13.50
2018-09-02T00:17:33.878Z,13.87
2018-09-02T00:19:39.688Z,12.73
2018-09-02T00:21:45.073Z,12.87
2018-09-02T00:23:51.232Z,11.60
2018-09-02T00:25:56.670Z,13.60
2018-09-02T00:28:02.093Z,14.20
2018-09-02T00:30:07.897Z,13.10
2018-09-02T00:32:13.811Z,13.03
2018-09-02T00:34:19.653Z,11.37
2018-09-02T00:36:25.601Z,12.73
2018-09-02T00:38:31.556Z,12.03
2018-09-02T00:40:37.328Z,13.43
2018-09-02T00:42:42.960Z,12.90
2018-09-02T00:44:49.687Z,13.00
2018-09-02T00:46:56.151Z,13.77
2018-09-02T00:49:02.758Z,13.83
2018-09-02T00:51:08.554Z,13.90
2018-09-02T00:56:34.129Z,14.10
2018-09-02T00:58:39.992Z,12.90
2018-09-02T01:00:46.046Z,10.37
2018-09-02T01:02:52.439Z,11.03
2018-09-02T01:04:59.050Z,8.50
2018-09-02T01:07:05.242Z,8.40
2018-09-02T01:09:11.800Z,8.40
2018-09-02T01:11:18.222Z,9.90
2018-09-02T01:13:24.379Z,8.97
2018-09-02T01:15:30.146Z,8.27
2018-09-02T01:17:36.481Z,7.10
2018-09-02T01:19:42.943Z,6.83
2018-09-02T01:21:49.249Z,6.37
2018-09-02T01:23:55.244Z,6.90
2018-09-02T01:26:02.280Z,6.00
2018-09-02T01:28:08.056Z,5.70
2018-09-02T01:30:13.898Z,5.53
2018-09-02T01:32:20.061Z,6.63
2018-09-02T01:34:43.570Z,6.33
2018-09-02T01:36:50.155Z,4.70
2018-09-02T01:38:56.207Z,5.63
2018-09-02T01:41:01.555Z,4.97
2018-09-02T01:43:07.492Z,5.13
2018-09-02T01:45:14.188Z,6.30
2018-09-02T01:47:20.017Z,4.50
2018-09-02T01:49:25.301Z,5.37
2018-09-02T01:51:34.638Z,4.10
2018-09-02T01:53:39.527Z,6.60
2018-09-02T01:55:44.904Z,5.83
2018-09-02T01:57:50.338Z,4.40
2018-09-02T01:59:56.030Z,5.63
2018-09-02T02:02:02.384Z,4.70
2018-09-02T02:04:07.943Z,5.70
2018-09-02T02:06:13.253Z,4.57
2018-09-02T02:08:18.446Z,5.33
2018-09-02T02:10:23.625Z,5.87
2018-09-02T02:12:33.424Z,5.13
2018-09-02T02:14:39.038Z,5.27
2018-09-02T02:16:44.174Z,5.20
2018-09-02T02:18:51.602Z,4.10
2018-09-02T02:20:57.247Z,5.03
2018-09-02T02:23:02.554Z,4.70
2018-09-02T02:25:07.876Z,4.50
2018-09-02T02:27:12.982Z,5.20
2018-09-02T02:29:17.741Z,5.10
2018-09-02T02:31:22.628Z,4.30
2018-09-02T02:33:27.861Z,5.00
2018-09-02T02:35:33.171Z,5.57
2018-09-02T02:37:38.390Z,4.67
2018-09-02T02:39:44.229Z,3.77
2018-09-02T02:41:49.508Z,5.83
2018-09-02T02:43:56.591Z,4.20
2018-09-02T02:46:02.555Z,4.63
2018-09-02T02:48:07.827Z,4.93
2018-09-02T02:50:12.646Z,5.40
2018-09-02T02:52:18.390Z,5.00
2018-09-02T02:54:23.572Z,5.00
2018-09-02T02:56:28.782Z,4.63
2018-09-02T02:58:33.876Z,4.30
2018-09-02T03:00:39.634Z,4.80
2018-09-02T03:02:44.854Z,5.13
2018-09-02T03:04:50.208Z,4.40
2018-09-02T03:06:55.505Z,4.97
2018-09-02T03:09:01.239Z,5.13
2018-09-02T03:11:06.933Z,4.70
2018-09-02T03:13:11.968Z,5.57
2018-09-02T03:15:16.993Z,3.87
2018-09-02T03:17:22.270Z,6.23
2018-09-02T03:19:27.792Z,3.20
2018-09-02T03:21:33.627Z,4.97
2018-09-02T03:23:38.481Z,4.70
2018-09-02T03:25:43.495Z,5.23
2018-09-02T03:27:50.511Z,4.73
2018-09-02T03:29:55.974Z,4.30
2018-09-02T03:32:02.168Z,4.60
2018-09-02T03:34:07.673Z,4.27
2018-09-02T03:36:12.734Z,4.50
2018-09-02T03:38:18.379Z,3.77
2018-09-02T03:40:23.122Z,4.30
2018-09-02T03:42:28.127Z,4.70
2018-09-02T03:44:33.992Z,4.90
2018-09-02T03:46:38.948Z,3.60
2018-09-02T03:48:44.500Z,4.47
2018-09-02T03:50:49.920Z,5.10
2018-09-02T03:52:55.281Z,4.30
2018-09-02T03:55:01.374Z,5.00
2018-09-02T03:57:06.449Z,5.17
2018-09-02T03:59:11.718Z,5.03
2018-09-02T04:01:17.017Z,5.20
2018-09-02T04:03:22.533Z,3.27
2018-09-02T04:05:29.201Z,8.27
2018-09-02T04:07:34.507Z,4.73
2018-09-02T04:09:40.229Z,3.87
2018-09-02T04:11:45.119Z,4.90
2018-09-02T04:13:50.276Z,4.57
2018-09-02T04:15:55.168Z,3.60
2018-09-02T04:18:00.556Z,5.60
2018-09-02T04:20:05.346Z,4.70
2018-09-02T04:22:10.702Z,5.00
2018-09-02T04:24:15.462Z,4.80
2018-09-02T04:26:20.136Z,4.80
2018-09-02T04:28:25.570Z,4.50
2018-09-02T04:30:31.358Z,4.73
2018-09-02T04:32:36.391Z,3.73
2018-09-02T04:34:41.886Z,4.10
2018-09-02T04:36:46.786Z,4.80
2018-09-02T04:38:52.063Z,3.87
2018-09-02T04:40:57.415Z,3.90
2018-09-02T04:43:02.854Z,4.37
2018-09-02T04:45:07.431Z,3.50
2018-09-02T04:47:12.828Z,4.17
2018-09-02T04:49:18.247Z,4.43
2018-09-02T04:51:23.617Z,4.60
2018-09-02T04:53:28.887Z,3.63
2018-09-02T04:55:34.252Z,3.90
2018-09-02T04:57:40.718Z,4.80
2018-09-02T04:59:46.399Z,3.47
2018-09-02T05:01:51.163Z,4.47
2018-09-02T05:03:55.941Z,3.10
2018-09-02T05:06:00.718Z,3.20
2018-09-02T05:08:05.566Z,4.20
2018-09-02T05:10:10.381Z,3.80
2018-09-02T05:12:15.059Z,5.17
2018-09-02T05:14:19.919Z,3.83
2018-09-02T05:16:24.738Z,3.73
2018-09-02T05:18:29.688Z,3.80
2018-09-02T05:20:34.729Z,3.27
2018-09-02T05:22:39.778Z,4.20
2018-09-02T05:24:44.592Z,3.47
2018-09-02T05:26:49.720Z,3.33
2018-09-02T05:28:54.850Z,4.07
2018-09-02T05:30:59.594Z,4.33
2018-09-02T05:33:04.498Z,3.80
2018-09-02T05:35:09.412Z,3.60
2018-09-02T05:37:14.040Z,4.80
2018-09-02T05:39:18.790Z,3.90
2018-09-02T05:41:23.669Z,4.27
2018-09-02T05:43:28.539Z,4.17
2018-09-02T05:45:33.396Z,4.30
2018-09-02T05:47:38.144Z,4.03
2018-09-02T05:49:42.911Z,3.70
2018-09-02T05:51:47.823Z,4.13
2018-09-02T05:53:52.655Z,4.33
2018-09-02T05:55:57.525Z,3.90
2018-09-02T05:58:02.105Z,4.33
2018-09-02T06:00:07.010Z,3.60
2018-09-02T06:02:12.362Z,3.60
2018-09-02T06:04:17.750Z,3.13
2018-09-02T06:06:23.355Z,4.70
2018-09-02T06:08:28.740Z,3.63
2018-09-02T06:10:33.728Z,4.33
2018-09-02T06:12:38.268Z,3.20
2018-09-02T06:14:43.233Z,3.97
2018-09-02T06:16:48.701Z,3.80
2018-09-02T06:18:53.548Z,4.53
2018-09-02T06:20:58.456Z,4.10
2018-09-02T06:23:03.193Z,3.60
2018-09-02T06:25:08.134Z,2.87
2018-09-02T06:27:13.110Z,4.20
2018-09-02T06:29:17.856Z,4.57
2018-09-02T06:31:22.813Z,4.37
2018-09-02T06:33:27.650Z,2.90
2018-09-02T06:35:32.753Z,4.50
2018-09-02T06:37:37.329Z,4.70
2018-09-02T06:39:42.295Z,3.33
2018-09-02T06:41:48.171Z,4.37
2018-09-02T06:43:53.024Z,3.73
2018-09-02T06:45:58.036Z,4.60
2018-09-02T06:48:02.796Z,3.57
2018-09-02T06:50:07.681Z,3.50
2018-09-02T06:52:12.578Z,3.77
2018-09-02T06:54:17.525Z,3.97
2018-09-02T06:56:22.296Z,3.63
2018-09-02T06:58:27.028Z,3.40
2018-09-02T07:00:31.812Z,3.17
2018-09-02T07:02:36.449Z,4.33
2018-09-02T07:04:41.269Z,3.60
2018-09-02T07:06:46.186Z,4.07
2018-09-02T07:08:50.938Z,4.10
2018-09-02T07:10:55.976Z,3.13
2018-09-02T07:13:00.903Z,3.73
2018-09-02T07:15:05.595Z,4.00
2018-09-02T07:17:10.537Z,3.60
2018-09-02T07:19:15.388Z,3.53
2018-09-02T07:21:20.163Z,3.57
2018-09-02T07:23:24.921Z,3.07
2018-09-02T07:25:29.759Z,3.13
2018-09-02T07:27:34.935Z,3.53
2018-09-02T07:29:39.752Z,3.00
2018-09-02T07:31:44.580Z,4.20
2018-09-02T07:33:49.216Z,3.77
2018-09-02T07:35:54.155Z,3.87
2018-09-02T07:37:59.028Z,3.40
2018-09-02T07:40:03.922Z,3.00
2018-09-02T07:42:08.509Z,3.43
2018-09-02T07:44:13.227Z,3.17
2018-09-02T07:46:18.220Z,2.90
2018-09-02T07:48:23.141Z,3.60
2018-09-02T07:50:28.077Z,3.43
2018-09-02T07:52:32.824Z,3.67
2018-09-02T07:54:37.539Z,3.13
2018-09-02T07:56:43.943Z,2.50
2018-09-02T07:58:48.836Z,4.20
2018-09-02T08:00:53.482Z,3.20
2018-09-02T08:02:58.164Z,2.60
2018-09-02T08:05:03.144Z,2.83
2018-09-02T08:07:07.919Z,4.23
2018-09-02T08:09:13.618Z,3.30
2018-09-02T08:11:18.576Z,3.07
2018-09-02T08:13:23.396Z,3.00
2018-09-02T08:15:28.205Z,4.30
2018-09-02T08:17:32.947Z,3.70
2018-09-02T08:19:37.942Z,3.33
2018-09-02T08:21:42.988Z,3.50
2018-09-02T08:23:48.081Z,4.13
2018-09-02T08:25:52.890Z,3.37
2018-09-02T08:27:57.730Z,3.60
2018-09-02T08:30:02.448Z,3.63
2018-09-02T08:32:07.265Z,3.80
2018-09-02T08:34:12.150Z,3.60
2018-09-02T08:36:17.207Z,3.23
2018-09-02T08:38:22.286Z,3.33
2018-09-02T08:40:27.049Z,3.00
2018-09-02T08:42:31.656Z,4.03
2018-09-02T08:44:36.508Z,2.90
2018-09-02T08:46:41.540Z,3.50
2018-09-02T08:48:46.337Z,3.13
2018-09-02T08:50:51.201Z,2.50
2018-09-02T08:52:55.888Z,3.10
2018-09-02T08:55:00.556Z,3.87
2018-09-02T08:57:05.239Z,3.13
2018-09-02T08:59:09.830Z,3.17
2018-09-02T09:01:14.616Z,3.30
2018-09-02T09:03:19.307Z,3.23
2018-09-02T09:05:23.929Z,3.00
2018-09-02T09:07:30.369Z,2.73
2018-09-02T09:09:35.301Z,3.30
2018-09-02T09:11:39.960Z,3.03
2018-09-02T09:13:44.760Z,3.10
2018-09-02T09:15:49.483Z,3.50
2018-09-02T09:17:54.274Z,3.00
2018-09-02T09:19:59.119Z,2.50
2018-09-02T09:22:03.897Z,2.80
2018-09-02T09:24:09.012Z,2.83
2018-09-02T09:26:13.792Z,2.33
2018-09-02T09:28:18.386Z,2.80
2018-09-02T09:30:23.455Z,3.10
2018-09-02T09:32:28.203Z,3.73
2018-09-02T09:34:32.901Z,3.43
2018-09-02T09:36:37.589Z,3.00
2018-09-02T09:38:42.213Z,5.03
2018-09-02T09:40:47.419Z,2.50
2018-09-02T09:42:52.012Z,3.47
2018-09-02T09:44:56.676Z,2.73
2018-09-02T09:47:01.286Z,2.97
2018-09-02T09:49:06.309Z,3.07
2018-09-02T09:51:10.996Z,3.60
2018-09-02T09:53:15.725Z,3.07
2018-09-02T09:55:20.390Z,3.40
2018-09-02T09:57:25.386Z,3.10
2018-09-02T09:59:30.276Z,2.43
2018-09-02T10:01:34.961Z,2.60
2018-09-02T10:03:39.536Z,43.77
2018-09-02T10:05:44.267Z,28.03
2018-09-02T10:07:49.145Z,18.63
2018-09-02T10:09:54.028Z,11.80
2018-09-02T10:11:58.933Z,9.97
2018-09-02T10:14:03.452Z,7.80
2018-09-02T10:16:08.209Z,7.90
2018-09-02T10:18:13.012Z,7.47
2018-09-02T10:20:17.865Z,5.50
2018-09-02T10:22:22.851Z,7.23
2018-09-02T10:24:27.569Z,5.60
2018-09-02T10:26:32.140Z,6.73
2018-09-02T10:28:36.699Z,4.57
2018-09-02T10:30:41.510Z,4.57
2018-09-02T10:32:46.622Z,4.23
2018-09-02T10:34:51.968Z,4.30
2018-09-02T10:36:56.689Z,4.90
2018-09-02T10:39:01.168Z,5.10
2018-09-02T10:41:05.752Z,4.37
2018-09-02T10:43:10.381Z,5.20
2018-09-02T10:45:15.334Z,4.90
2018-09-02T10:47:20.129Z,4.50
2018-09-02T10:49:25.058Z,4.50
2018-09-02T10:51:29.741Z,4.30
2018-09-02T10:53:34.538Z,3.73
2018-09-02T10:55:39.130Z,4.50
2018-09-02T10:57:43.681Z,4.77
2018-09-02T10:59:49.381Z,4.27
2018-09-02T11:01:53.906Z,3.17
2018-09-02T11:03:59.731Z,3.30
2018-09-02T11:06:04.447Z,3.00
2018-09-02T11:08:09.238Z,3.13
2018-09-02T11:10:13.955Z,4.03
2018-09-02T11:12:18.547Z,3.60
2018-09-02T11:14:23.275Z,3.87
2018-09-02T11:16:27.788Z,3.90
2018-09-02T11:18:32.778Z,4.73
2018-09-02T11:20:38.046Z,5.37
2018-09-02T11:22:42.742Z,6.70
2018-09-02T11:24:47.461Z,6.20
2018-09-02T11:26:52.202Z,10.67
2018-09-02T11:28:57.009Z,5.50
2018-09-02T11:31:01.860Z,7.33
2018-09-02T11:33:07.204Z,6.50
2018-09-02T11:35:12.012Z,7.03
2018-09-02T11:37:16.650Z,8.90
2018-09-02T11:39:21.279Z,6.90
2018-09-02T11:41:25.858Z,5.07
2018-09-02T11:43:30.651Z,8.20
2018-09-02T11:45:35.463Z,6.80
2018-09-02T11:47:40.271Z,6.00
2018-09-02T11:49:44.974Z,7.93
2018-09-02T11:51:49.802Z,13.40
2018-09-02T11:53:54.583Z,9.03
2018-09-02T11:55:59.553Z,7.73
2018-09-02T11:58:04.436Z,6.77
2018-09-02T12:00:09.147Z,7.50
2018-09-02T12:02:13.935Z,8.23
2018-09-02T12:04:18.806Z,6.20
2018-09-02T12:06:23.536Z,6.77
2018-09-02T12:08:28.274Z,7.87
2018-09-02T12:10:33.035Z,8.37
2018-09-02T12:12:38.045Z,7.47
2018-09-02T12:14:42.773Z,7.17
2018-09-02T12:16:47.599Z,6.70
2018-09-02T12:18:52.394Z,6.97
2018-09-02T12:20:57.428Z,7.20
2018-09-02T12:23:25.547Z,6.90
2018-09-02T12:25:30.212Z,8.50
2018-09-02T12:27:34.808Z,6.30
2018-09-02T12:29:39.906Z,6.00
2018-09-02T12:31:45.199Z,6.57
2018-09-02T12:33:49.929Z,6.40
2018-09-02T12:35:55.167Z,8.00
2018-09-02T12:37:59.943Z,7.70
2018-09-02T12:40:04.714Z,7.90
2018-09-02T12:42:09.679Z,8.77
2018-09-02T12:44:14.347Z,11.33
2018-09-02T12:46:19.156Z,6.87
2018-09-02T12:48:23.929Z,6.90
2018-09-02T12:50:28.848Z,7.23
2018-09-02T12:52:33.697Z,8.80
2018-09-02T12:54:38.346Z,7.47
2018-09-02T12:56:43.566Z,6.30
2018-09-02T12:58:48.481Z,8.37
2018-09-02T13:00:53.342Z,9.50
2018-09-02T13:02:58.178Z,9.10
2018-09-02T13:05:03.095Z,7.93
2018-09-02T13:07:07.997Z,7.87
2018-09-02T13:09:12.670Z,7.60
2018-09-02T13:11:17.406Z,9.03
2018-09-02T13:13:22.146Z,7.20
2018-09-02T13:15:28.513Z,6.97
2018-09-02T13:17:33.661Z,7.10
2018-09-02T13:19:38.498Z,9.03
2018-09-02T13:21:43.820Z,8.03
2018-09-02T13:23:48.813Z,8.37
2018-09-02T13:25:53.500Z,6.70
2018-09-02T13:27:58.223Z,11.30
2018-09-02T13:30:03.330Z,11.33
2018-09-02T13:32:08.092Z,12.83
2018-09-02T13:34:12.834Z,14.10
2018-09-02T13:36:17.783Z,15.03
2018-09-02T13:38:22.699Z,12.47
2018-09-02T13:40:31.513Z,14.37
2018-09-02T13:42:36.598Z,14.77
2018-09-02T13:44:41.462Z,13.97
2018-09-02T13:46:46.624Z,14.63
2018-09-02T13:48:51.563Z,16.40
2018-09-02T13:50:56.667Z,14.27
2018-09-02T13:53:01.565Z,17.00
2018-09-02T13:55:06.423Z,15.23
2018-09-02T13:57:11.367Z,15.50
2018-09-02T13:59:16.005Z,15.83
2018-09-02T14:01:20.907Z,15.17
2018-09-02T14:03:25.762Z,22.23
2018-09-02T14:05:30.615Z,28.87
2018-09-02T14:07:35.592Z,35.40
2018-09-02T14:09:40.404Z,37.73
2018-09-02T14:11:45.423Z,40.77
2018-09-02T14:13:50.394Z,43.30
2018-09-02T14:15:59.205Z,42.10
2018-09-02T14:18:04.319Z,50.50
2018-09-02T14:20:09.134Z,35.23
2018-09-02T14:22:14.195Z,31.60
2018-09-02T14:24:19.165Z,28.13
2018-09-02T14:26:24.363Z,36.33
2018-09-02T14:28:29.181Z,25.70
2018-09-02T14:30:34.330Z,26.33
2018-09-02T14:32:39.446Z,25.00
2018-09-02T14:34:44.363Z,30.50
2018-09-02T14:36:49.185Z,25.57
2018-09-02T14:38:54.412Z,34.37
2018-09-02T14:40:59.163Z,32.00
2018-09-02T14:43:04.094Z,26.27
2018-09-02T14:45:09.825Z,23.83
2018-09-02T14:47:14.594Z,24.43
2018-09-02T14:49:19.545Z,23.30
2018-09-02T14:51:24.552Z,24.10
2018-09-02T14:53:29.286Z,21.77
2018-09-02T14:55:34.118Z,21.73
2018-09-02T14:57:39.341Z,20.97
2018-09-02T14:59:44.298Z,19.87
2018-09-02T15:01:49.216Z,19.83
2018-09-02T15:03:54.079Z,20.57
2018-09-02T15:05:58.928Z,20.73
2018-09-02T15:08:03.865Z,19.60
2018-09-02T15:10:09.139Z,18.83
2018-09-02T15:12:14.174Z,21.30
2018-09-02T15:14:19.084Z,21.97
2018-09-02T15:16:24.566Z,20.20
2018-09-02T15:18:29.675Z,21.40
2018-09-02T15:20:36.072Z,21.97
2018-09-02T15:22:41.242Z,20.37
2018-09-02T15:24:46.557Z,23.67
2018-09-02T15:26:51.583Z,21.57
2018-09-02T15:29:00.188Z,20.57
2018-09-02T15:31:05.144Z,18.27
2018-09-02T15:33:10.341Z,18.30
2018-09-02T15:35:16.592Z,20.37
2018-09-02T15:37:21.698Z,18.30
2018-09-02T15:39:26.929Z,19.17
2018-09-02T15:41:31.551Z,19.63
2018-09-02T15:43:36.629Z,20.00
2018-09-02T15:45:41.867Z,20.87
2018-09-02T15:47:49.235Z,18.93
2018-09-02T15:50:18.385Z,19.90
2018-09-02T15:52:23.521Z,20.07
2018-09-02T15:54:28.520Z,19.93
2018-09-02T15:56:33.729Z,18.23
2018-09-02T15:58:39.618Z,18.40
2018-09-02T16:00:47.411Z,18.13
2018-09-02T16:02:52.524Z,19.80
2018-09-02T16:04:57.599Z,18.33
2018-09-02T16:07:03.131Z,19.30
2018-09-02T16:11:21.548Z,16.17
2018-09-02T16:13:26.631Z,16.90
2018-09-02T16:15:31.526Z,19.43
2018-09-02T16:17:36.340Z,15.73
2018-09-02T16:19:42.389Z,24.93
2018-09-02T16:21:47.300Z,22.40
2018-09-02T16:23:52.805Z,40.37
2018-09-02T16:25:57.845Z,33.30
2018-09-02T16:28:02.812Z,24.20
2018-09-02T16:30:08.080Z,18.33
2018-09-02T16:32:12.800Z,21.70
2018-09-02T16:34:17.946Z,21.03
2018-09-02T16:36:24.816Z,19.10
2018-09-02T16:40:40.299Z,19.53
2018-09-02T16:42:45.299Z,22.57
2018-09-02T16:44:50.938Z,24.93
2018-09-02T16:46:56.234Z,21.13
2018-09-02T16:49:02.269Z,17.57
2018-09-02T16:51:07.748Z,18.63
2018-09-02T16:53:13.105Z,25.80
2018-09-02T16:55:18.338Z,19.73
2018-09-02T16:57:24.127Z,19.43
2018-09-02T16:59:29.753Z,20.13
2018-09-02T17:01:36.346Z,20.40
2018-09-02T17:03:45.518Z,23.87
2018-09-02T17:05:50.845Z,20.63
2018-09-02T17:07:56.056Z,27.63
2018-09-02T17:10:01.744Z,37.30
2018-09-02T17:12:07.163Z,33.77
2018-09-02T17:14:13.104Z,40.70
2018-09-02T17:16:18.760Z,33.97
2018-09-02T17:18:23.805Z,30.03
2018-09-02T17:20:31.452Z,28.37
2018-09-02T17:22:36.358Z,27.90
2018-09-02T17:24:41.467Z,26.50
2018-09-02T17:26:47.492Z,26.23
2018-09-02T17:28:52.721Z,27.30
2018-09-02T17:30:58.760Z,24.50
2018-09-02T17:33:04.745Z,27.53
2018-09-02T17:35:09.859Z,24.03
2018-09-02T17:37:15.144Z,24.23
2018-09-02T17:39:20.404Z,23.30
2018-09-02T17:41:25.620Z,27.20
2018-09-02T17:43:30.633Z,31.23
2018-09-02T17:45:36.135Z,28.70
2018-09-02T17:47:41.628Z,26.13
2018-09-02T17:49:46.742Z,25.40
2018-09-02T17:51:52.114Z,27.20
2018-09-02T17:53:57.171Z,25.90
2018-09-02T17:56:02.895Z,23.63
2018-09-02T17:58:07.827Z,27.13
2018-09-02T18:00:16.473Z,29.03
2018-09-02T18:02:22.042Z,30.23
2018-09-02T18:04:27.910Z,25.23
2018-09-02T18:06:33.259Z,23.27
2018-09-02T18:08:38.436Z,28.43
2018-09-02T18:10:43.777Z,25.37
2018-09-02T18:12:49.140Z,23.90
2018-09-02T18:14:54.642Z,24.70
2018-09-02T18:17:00.072Z,30.90
2018-09-02T18:19:05.344Z,21.63
2018-09-02T18:21:10.498Z,23.70
2018-09-02T18:23:15.547Z,25.10
2018-09-02T18:25:20.684Z,26.67
2018-09-02T18:27:30.120Z,27.33
2018-09-02T18:29:35.466Z,30.30
2018-09-02T18:31:40.376Z,26.90
2018-09-02T18:33:45.462Z,27.83
2018-09-02T18:35:51.037Z,35.57
2018-09-02T18:37:56.297Z,33.10
2018-09-02T18:40:02.151Z,25.70
2018-09-02T18:42:07.123Z,31.80
2018-09-02T18:44:12.155Z,27.60
2018-09-02T18:46:17.940Z,32.40
2018-09-02T18:48:23.447Z,25.33
2018-09-02T18:50:28.651Z,25.93
2018-09-02T18:52:34.187Z,25.63
2018-09-02T18:54:39.815Z,26.37
2018-09-02T18:56:45.222Z,22.83
2018-09-02T18:58:50.987Z,24.87
2018-09-02T19:00:56.068Z,24.17
2018-09-02T19:03:02.196Z,26.30
2018-09-02T19:05:07.647Z,26.67
2018-09-02T19:07:13.181Z,31.43
2018-09-02T19:09:18.836Z,26.33
2018-09-02T19:11:23.904Z,26.50
2018-09-02T19:13:29.355Z,28.17
2018-09-02T19:15:34.940Z,23.07
2018-09-02T19:17:40.457Z,26.20
2018-09-02T19:19:46.489Z,37.93
2018-09-02T19:21:51.805Z,30.70
2018-09-02T19:23:57.465Z,30.10
2018-09-02T19:26:03.033Z,19.70
2018-09-02T19:28:08.033Z,22.27
2018-09-02T19:30:13.407Z,15.47
2018-09-02T19:32:19.034Z,14.63
2018-09-02T19:34:24.055Z,16.20
2018-09-02T19:36:29.405Z,14.20
2018-09-02T19:38:34.819Z,31.43
2018-09-02T19:40:40.042Z,38.90
2018-09-02T19:42:45.376Z,26.30
2018-09-02T19:44:50.782Z,21.57
2018-09-02T19:46:56.072Z,18.70
2018-09-02T19:49:01.428Z,17.50
2018-09-02T19:51:06.901Z,12.83
2018-09-02T19:53:11.604Z,11.10
2018-09-02T19:55:16.624Z,10.40
2018-09-02T19:57:21.430Z,9.77
2018-09-02T19:59:26.412Z,10.60
2018-09-02T20:01:31.058Z,11.60
2018-09-02T20:03:36.083Z,9.30
2018-09-02T20:05:41.014Z,9.30
2018-09-02T20:07:45.833Z,9.17
2018-09-02T20:09:50.741Z,9.80
2018-09-02T20:11:55.660Z,9.30
2018-09-02T20:14:00.646Z,9.30
2018-09-02T20:16:05.544Z,9.20
2018-09-02T20:18:24.547Z,10.27
2018-09-02T20:20:29.453Z,10.73
2018-09-02T20:22:35.325Z,9.17
2018-09-02T20:24:40.331Z,10.43
2018-09-02T20:26:51.432Z,8.90
2018-09-02T20:28:56.921Z,9.53
2018-09-02T20:31:02.029Z,8.67
2018-09-02T20:33:06.825Z,11.20
2018-09-02T20:35:11.769Z,9.00
2018-09-02T20:37:16.695Z,8.77
2018-09-02T20:39:21.651Z,9.93
2018-09-02T20:41:26.789Z,8.33
2018-09-02T20:43:31.635Z,10.33
2018-09-02T20:45:36.483Z,9.27
2018-09-02T20:47:41.467Z,8.97
2018-09-02T20:49:46.280Z,8.90
2018-09-02T20:51:51.090Z,9.20
2018-09-02T20:53:55.923Z,8.67
2018-09-02T20:56:00.786Z,8.23
2018-09-02T20:58:05.655Z,13.90
2018-09-02T21:00:12.302Z,8.40
2018-09-02T21:02:17.449Z,11.27
2018-09-02T21:04:22.395Z,8.00
2018-09-02T21:06:27.237Z,8.77
2018-09-02T21:08:35.464Z,9.93
2018-09-02T21:13:42.233Z,9.50
2018-09-02T21:15:53.122Z,8.27
2018-09-02T21:18:16.161Z,10.30
2018-09-02T21:20:34.706Z,7.63
2018-09-02T21:22:39.869Z,8.00
2018-09-02T21:24:46.036Z,7.47
2018-09-02T21:26:51.019Z,7.97
2018-09-02T21:28:55.932Z,7.43
2018-09-02T21:31:01.204Z,8.80
2018-09-02T21:33:06.106Z,17.60
2018-09-02T21:35:10.850Z,32.13
2018-09-02T21:37:15.789Z,9.90
2018-09-02T21:39:20.520Z,19.20
2018-09-02T21:41:25.455Z,13.13
2018-09-02T21:43:30.252Z,14.03
2018-09-02T21:45:35.303Z,14.30
2018-09-02T21:47:40.486Z,12.87
2018-09-02T21:49:45.643Z,10.10
2018-09-02T21:51:50.432Z,16.47
2018-09-02T21:53:55.137Z,7.70
2018-09-02T21:56:00.264Z,15.83
2018-09-02T21:58:05.077Z,18.60
2018-09-02T22:00:09.920Z,17.43
2018-09-02T22:02:15.085Z,14.27
2018-09-02T22:04:20.014Z,14.43
2018-09-02T22:06:25.653Z,11.63
2018-09-02T22:08:30.512Z,15.27
2018-09-02T22:10:35.423Z,9.70
2018-09-02T22:12:41.368Z,16.37
2018-09-02T22:14:46.384Z,11.10
2018-09-02T22:16:51.442Z,9.50
2018-09-02T22:18:56.759Z,11.10
2018-09-02T22:21:02.513Z,10.50
2018-09-02T22:23:07.329Z,7.13
2018-09-02T22:25:13.618Z,8.10
2018-09-02T22:27:18.574Z,12.00
2018-09-02T22:29:24.154Z,10.00
2018-09-02T22:31:29.731Z,52.57
2018-09-02T22:33:35.477Z,101.20
2018-09-02T22:35:40.484Z,167.37
2018-09-02T22:37:45.621Z,156.37
2018-09-02T22:39:51.041Z,158.97
2018-09-02T22:41:56.518Z,142.97
2018-09-02T22:44:02.049Z,114.40
2018-09-02T22:46:07.108Z,126.80
2018-09-02T22:48:12.527Z,115.23
2018-09-02T22:50:17.824Z,109.17
2018-09-02T22:52:23.182Z,89.87
2018-09-02T22:57:55.789Z,83.73
2018-09-02T23:00:22.230Z,85.60
2018-09-02T23:04:59.533Z,69.30
2018-09-02T23:07:06.956Z,68.97
2018-09-02T23:09:12.206Z,63.73
2018-09-02T23:11:17.482Z,351.40
2018-09-02T23:13:23.542Z,93.57
2018-09-02T23:18:17.304Z,118.87
2018-09-02T23:20:23.088Z,94.43
2018-09-02T23:22:28.570Z,93.83
2018-09-02T23:24:33.535Z,83.90
2018-09-02T23:26:39.037Z,76.33
2018-09-02T23:28:47.627Z,83.30
2018-09-02T23:31:19.628Z,75.50
2018-09-02T23:33:24.826Z,73.20
2018-09-02T23:35:30.195Z,74.57
2018-09-02T23:37:36.524Z,76.93
2018-09-02T23:39:41.719Z,75.97
2018-09-02T23:41:47.063Z,74.93
2018-09-02T23:43:52.479Z,81.40
2018-09-02T23:45:57.385Z,72.23
2018-09-02T23:48:02.980Z,69.00
2018-09-02T23:50:09.370Z,58.03
2018-09-02T23:52:14.875Z,50.47
2018-09-02T23:54:20.614Z,41.33
2018-09-02T23:56:26.303Z,35.50
2018-09-02T23:58:32.255Z,22.70
